createdAt,value
2017-10-28T00:03:42.381Z,102041.78
2017-10-28T00:08:44.405Z,102030.94
2017-10-28T00:13:46.400Z,102037.03
2017-10-28T00:18:48.374Z,102027.76
2017-10-28T00:23:50.375Z,102009.73
2017-10-28T00:28:52.355Z,101998.69
2017-10-28T00:34:00.471Z,101991.45
2017-10-28T00:39:02.498Z,101987.22
2017-10-28T00:44:04.554Z,101973.52
2017-10-28T00:49:06.570Z,101958.28
2017-10-28T00:54:09.340Z,101962.37
2017-10-28T00:59:11.335Z,101958.14
2017-10-28T01:04:13.370Z,101961.52
2017-10-28T01:09:15.324Z,101948.19
2017-10-28T01:14:17.345Z,101945.44
2017-10-28T01:19:20.335Z,101930.63
2017-10-28T01:24:23.171Z,101917.55
2017-10-28T01:29:26.050Z,101896.56
2017-10-28T01:34:28.079Z,101880.89
2017-10-28T01:39:30.893Z,101865.52
2017-10-28T01:44:32.924Z,101857.64
2017-10-28T01:49:34.923Z,101867.59
2017-10-28T01:54:36.848Z,101871.73
2017-10-28T01:59:39.218Z,101852.78
2017-10-28T02:04:41.150Z,101841.71
2017-10-28T02:09:43.832Z,101845.97
2017-10-28T02:14:45.837Z,101843.08
2017-10-28T02:19:47.834Z,101825.93
2017-10-28T02:24:49.767Z,101790.93
2017-10-28T02:29:51.715Z,101761.47
2017-10-28T02:34:53.644Z,101764.84
2017-10-28T02:39:56.562Z,101774.91
2017-10-28T02:44:58.580Z,101756.05
2017-10-28T02:50:00.624Z,101726.00
2017-10-28T02:55:02.722Z,101699.01
2017-10-28T03:00:04.816Z,101723.55
2017-10-28T03:05:09.398Z,101703.69
2017-10-28T03:10:11.491Z,101708.42
2017-10-28T03:15:13.527Z,101720.14
2017-10-28T03:20:16.254Z,101717.30
2017-10-28T03:25:19.035Z,101705.53
2017-10-28T03:30:21.034Z,101695.83
2017-10-28T03:35:23.064Z,101705.31
2017-10-28T03:40:25.029Z,101665.94
2017-10-28T03:45:27.044Z,101665.31
2017-10-28T03:50:29.113Z,101658.25
2017-10-28T03:55:31.849Z,101648.36
2017-10-28T04:00:33.959Z,101645.16
2017-10-28T04:05:36.382Z,101632.30
2017-10-28T04:10:38.391Z,101631.30
2017-10-28T04:15:40.379Z,101624.27
2017-10-28T04:20:42.304Z,101571.00
2017-10-28T04:25:44.583Z,101572.78
2017-10-28T04:30:46.590Z,101566.72
2017-10-28T04:35:52.088Z,101577.56
2017-10-28T04:40:54.366Z,101564.83
2017-10-28T04:45:56.355Z,101520.17
2017-10-28T04:50:58.303Z,101492.23
2017-10-28T04:56:00.273Z,101496.36
2017-10-28T05:01:03.454Z,101477.50
2017-10-28T05:06:05.497Z,101479.78
2017-10-28T05:11:07.548Z,101445.58
2017-10-28T05:16:10.336Z,101398.89
2017-10-28T05:21:14.613Z,101406.76
2017-10-28T05:26:22.780Z,101435.09
2017-10-28T05:31:24.899Z,101433.37
2017-10-28T05:36:27.004Z,101417.05
2017-10-28T05:41:28.992Z,101402.58
2017-10-28T05:46:31.755Z,101384.70
2017-10-28T05:51:33.743Z,101388.16
2017-10-28T05:56:35.694Z,101381.77
2017-10-28T06:01:37.635Z,101369.84
2017-10-28T06:06:40.299Z,101372.84
2017-10-28T06:11:42.192Z,101379.41
2017-10-28T06:16:44.705Z,101382.41
2017-10-28T06:21:47.344Z,101388.83
2017-10-28T06:26:49.582Z,101390.23
2017-10-28T06:31:51.519Z,101384.79
2017-10-28T06:36:53.435Z,101360.68
2017-10-28T06:41:55.369Z,101365.39
2017-10-28T06:46:57.272Z,101355.27
2017-10-28T06:51:59.161Z,101332.77
2017-10-28T06:57:01.198Z,101351.98
2017-10-28T07:02:03.235Z,101330.16
2017-10-28T07:07:05.219Z,101326.77
2017-10-28T07:12:07.964Z,101320.47
2017-10-28T07:17:10.055Z,101316.86
2017-10-28T07:22:12.902Z,101338.91
2017-10-28T07:27:21.537Z,101355.09
2017-10-28T07:32:24.813Z,101345.52
2017-10-28T07:37:26.714Z,101327.91
2017-10-28T07:42:28.638Z,101325.06
2017-10-28T07:47:30.559Z,101313.28
2017-10-28T07:52:32.479Z,101322.73
2017-10-28T07:57:34.360Z,101322.07
2017-10-28T08:02:36.394Z,101311.52
2017-10-28T08:07:39.179Z,101303.77
2017-10-28T08:12:41.112Z,101301.98
2017-10-28T08:17:43.028Z,101302.02
2017-10-28T08:22:44.961Z,101295.32
2017-10-28T08:27:46.899Z,101288.19
2017-10-28T08:32:48.815Z,101275.44
2017-10-28T08:37:50.708Z,101279.34
2017-10-28T08:42:52.631Z,101272.44
2017-10-28T08:47:54.834Z,101263.20
2017-10-28T08:52:56.885Z,101247.06
2017-10-28T08:57:59.696Z,101236.59
2017-10-28T09:03:01.628Z,101221.13
2017-10-28T09:08:03.617Z,101222.75
2017-10-28T09:13:05.494Z,101220.81
2017-10-28T09:18:07.493Z,101228.95
2017-10-28T09:23:10.122Z,101218.38
2017-10-28T09:28:12.761Z,101217.81
2017-10-28T09:33:14.675Z,101206.36
2017-10-28T09:38:16.662Z,101210.43
2017-10-28T09:43:18.614Z,101196.78
2017-10-28T09:48:20.619Z,101183.45
2017-10-28T09:53:22.540Z,101172.23
2017-10-28T09:58:24.474Z,101184.45
2017-10-28T10:03:26.411Z,101185.95
2017-10-28T10:08:28.399Z,101157.21
2017-10-28T10:13:30.311Z,101168.13
2017-10-28T10:18:32.208Z,101163.27
2017-10-28T10:23:34.136Z,101154.27
2017-10-28T10:28:36.040Z,101139.88
2017-10-28T10:33:37.926Z,101137.71
2017-10-28T10:38:39.816Z,101129.77
2017-10-28T10:43:41.770Z,101141.75
2017-10-28T10:48:44.471Z,101132.83
2017-10-28T10:53:46.404Z,101118.62
2017-10-28T10:58:49.207Z,101110.34
2017-10-28T11:03:51.154Z,101091.81
2017-10-28T11:08:53.248Z,101083.62
2017-10-28T11:13:55.189Z,101070.47
2017-10-28T11:18:57.140Z,101056.05
2017-10-28T11:23:59.825Z,101061.16
2017-10-28T11:29:01.770Z,101043.69
2017-10-28T11:34:03.707Z,101043.11
2017-10-28T11:39:05.627Z,101034.30
2017-10-28T11:44:07.592Z,101025.08
2017-10-28T11:49:11.977Z,101025.47
2017-10-28T11:54:14.804Z,101017.48
2017-10-28T11:59:16.688Z,101003.54
2017-10-28T12:04:18.889Z,100977.64
2017-10-28T12:09:20.996Z,100973.14
2017-10-28T12:14:25.612Z,100956.73
2017-10-28T12:19:28.474Z,100953.33
2017-10-28T12:24:30.423Z,100957.16
2017-10-28T12:29:32.348Z,100956.08
2017-10-28T12:34:34.283Z,100946.83
2017-10-28T12:39:37.017Z,100933.81
2017-10-28T12:44:39.676Z,100913.56
2017-10-28T12:49:41.648Z,100906.32
2017-10-28T12:54:43.620Z,100886.48
2017-10-28T12:59:45.538Z,100885.42
2017-10-28T13:04:48.233Z,100888.67
2017-10-28T13:09:50.151Z,100875.88
2017-10-28T13:14:59.085Z,100863.44
2017-10-28T13:20:01.656Z,100854.45
2017-10-28T13:25:03.803Z,100834.30
2017-10-28T13:30:05.948Z,100824.63
2017-10-28T13:35:08.012Z,100813.27
2017-10-28T13:40:10.252Z,100810.66
2017-10-28T13:45:12.551Z,100808.31
2017-10-28T13:50:14.648Z,100811.27
2017-10-28T13:55:16.591Z,100811.27
2017-10-28T14:00:18.512Z,100821.89
2017-10-28T14:05:21.220Z,100813.93
2017-10-28T14:15:25.574Z,100799.23
2017-10-28T14:20:27.627Z,100804.13
2017-10-28T14:25:29.860Z,100788.46
2017-10-28T14:30:31.913Z,100790.45
2017-10-28T14:35:34.483Z,100775.52
2017-10-28T14:40:36.509Z,100773.89
2017-10-28T14:45:38.659Z,100760.89
2017-10-28T14:50:40.631Z,100754.39
2017-10-28T14:55:42.512Z,100759.54
2017-10-28T15:00:44.416Z,100748.02
2017-10-28T15:05:47.075Z,100743.44
2017-10-28T15:10:49.072Z,100745.77
2017-10-28T15:15:51.011Z,100735.48
2017-10-28T15:20:52.914Z,100710.65
2017-10-28T15:25:54.850Z,100692.32
2017-10-28T15:30:57.522Z,100682.39
2017-10-28T15:35:59.481Z,100665.62
2017-10-28T15:41:02.155Z,100665.77
2017-10-28T15:46:04.043Z,100655.61
2017-10-28T15:51:05.961Z,100641.66
2017-10-28T15:56:07.867Z,100643.45
2017-10-28T16:01:09.887Z,100635.48
2017-10-28T16:06:11.851Z,100619.86
2017-10-28T16:11:13.761Z,100597.41
2017-10-28T16:16:15.670Z,100588.30
2017-10-28T16:21:17.587Z,100596.34
2017-10-28T16:26:19.589Z,100592.09
2017-10-28T16:31:21.535Z,100585.27
2017-10-28T16:36:24.215Z,100571.83
2017-10-28T16:41:26.134Z,100573.41
2017-10-28T16:46:28.039Z,100561.02
2017-10-28T16:51:30.509Z,100542.03
2017-10-28T16:56:32.834Z,100533.36
2017-10-28T17:01:34.763Z,100519.21
2017-10-28T17:06:36.695Z,100511.97
2017-10-28T17:11:39.471Z,100508.81
2017-10-28T17:16:41.364Z,100498.37
2017-10-28T17:21:43.286Z,100495.57
2017-10-28T17:26:45.228Z,100464.67
2017-10-28T17:31:47.310Z,100472.94
2017-10-28T17:36:49.223Z,100447.95
2017-10-28T17:41:51.244Z,100432.50
2017-10-28T17:46:53.940Z,100439.17
2017-10-28T17:51:55.859Z,100435.70
2017-10-28T17:56:58.614Z,100430.77
2017-10-28T18:02:00.607Z,100413.87
2017-10-28T18:07:02.592Z,100402.41
2017-10-28T18:12:05.313Z,100392.52
2017-10-28T18:17:07.952Z,100377.16
2017-10-28T18:22:09.903Z,100358.78
2017-10-28T18:27:11.806Z,100350.04
2017-10-28T18:32:13.717Z,100337.76
2017-10-28T18:37:15.676Z,100330.30
2017-10-28T18:42:17.729Z,100307.27
2017-10-28T18:47:19.703Z,100303.28
2017-10-28T18:52:21.640Z,100292.81
2017-10-28T18:57:24.344Z,100285.09
2017-10-28T19:02:26.909Z,100272.97
2017-10-28T19:07:29.655Z,100262.22
2017-10-28T19:12:31.992Z,100251.51
2017-10-28T19:17:35.045Z,100240.22
2017-10-28T19:22:37.116Z,100227.98
2017-10-28T19:27:40.129Z,100200.98
2017-10-28T19:32:44.290Z,100198.81
2017-10-28T19:37:46.653Z,100195.73
2017-10-28T19:42:49.663Z,100192.53
2017-10-28T19:47:51.697Z,100158.61
2017-10-28T19:52:53.751Z,100158.67
2017-10-28T19:57:55.896Z,100139.28
2017-10-28T20:02:58.354Z,100142.09
2017-10-28T20:08:01.926Z,100134.33
2017-10-28T20:13:04.027Z,100112.17
2017-10-28T20:18:10.540Z,100087.38
2017-10-28T20:23:14.301Z,100056.53
2017-10-28T20:28:19.550Z,100046.11
2017-10-28T20:33:21.520Z,100013.52
2017-10-28T20:38:23.469Z,100016.92
2017-10-28T20:43:25.456Z,100008.86
2017-10-28T20:48:27.431Z,100002.15
2017-10-28T20:53:29.424Z,99985.66
2017-10-28T20:58:31.345Z,99982.03
2017-10-28T21:03:33.992Z,99983.55
2017-10-28T21:08:36.266Z,99962.34
2017-10-28T21:13:39.077Z,99950.19
2017-10-28T21:18:41.191Z,99940.34
2017-10-28T21:23:43.117Z,99932.33
2017-10-28T21:28:45.776Z,99910.15
2017-10-28T21:33:47.760Z,99898.46
2017-10-28T21:38:49.704Z,99885.89
2017-10-28T21:43:51.806Z,99869.81
2017-10-28T21:48:53.730Z,99848.89
2017-10-28T21:53:57.016Z,99835.92
2017-10-28T21:58:59.163Z,99817.37
2017-10-28T22:04:01.296Z,99807.38
2017-10-28T22:09:04.152Z,99805.63
2017-10-28T22:14:06.239Z,99785.52
2017-10-28T22:19:08.897Z,99780.06
2017-10-28T22:24:10.850Z,99771.03
2017-10-28T22:29:12.773Z,99758.77
2017-10-28T22:34:15.465Z,99766.92
2017-10-28T22:39:17.408Z,99764.71
2017-10-28T22:44:20.137Z,99742.98
2017-10-28T22:49:22.081Z,99721.30
2017-10-28T22:54:24.035Z,99699.09
2017-10-28T22:59:26.672Z,99693.48
2017-10-28T23:04:28.604Z,99672.99
2017-10-28T23:09:30.617Z,99663.99
2017-10-28T23:14:32.616Z,99642.96
2017-10-28T23:19:35.272Z,99637.30
2017-10-28T23:24:38.762Z,99646.73
2017-10-28T23:29:41.479Z,99620.98
2017-10-28T23:34:44.051Z,99611.70
2017-10-28T23:39:45.934Z,99599.32
2017-10-28T23:44:47.911Z,99581.98
2017-10-28T23:49:49.896Z,99579.14
2017-10-28T23:54:51.864Z,99559.96
2017-10-28T23:59:53.769Z,99551.17
